createdAt,value
2023-02-22T00:02:19.427Z,63.06
2023-02-22T00:04:46.265Z,64.79
2023-02-22T00:07:14.419Z,65.07
2023-02-22T00:09:41.346Z,66.04
2023-02-22T00:12:09.157Z,65.39
2023-02-22T00:14:35.965Z,65.67
2023-02-22T00:17:02.714Z,66.31
2023-02-22T00:19:29.471Z,66.65
2023-02-22T00:21:56.629Z,66.33
2023-02-22T00:24:24.763Z,66.51
2023-02-22T00:26:52.526Z,66.70
2023-02-22T00:29:19.269Z,66.34
2023-02-22T00:31:46.088Z,68.74
2023-02-22T00:34:14.448Z,69.55
2023-02-22T00:36:45.401Z,71.66
2023-02-22T00:39:12.169Z,67.88
2023-02-22T00:41:40.310Z,66.48
2023-02-22T00:44:07.137Z,70.14
2023-02-22T00:46:34.046Z,69.61
2023-02-22T00:49:00.878Z,70.65
2023-02-22T00:51:27.856Z,67.80
2023-02-22T00:53:54.565Z,70.00
2023-02-22T00:56:21.307Z,69.06
2023-02-22T00:58:49.403Z,69.06
2023-02-22T01:01:16.741Z,68.02
2023-02-22T01:03:43.725Z,68.14
2023-02-22T01:06:10.554Z,67.44
2023-02-22T01:08:37.355Z,67.71
2023-02-22T01:11:04.306Z,67.31
2023-02-22T01:13:31.047Z,67.72
2023-02-22T01:15:59.183Z,66.66
2023-02-22T01:18:26.277Z,67.52
2023-02-22T01:20:53.041Z,67.83
2023-02-22T01:23:19.963Z,66.29
2023-02-22T01:25:46.740Z,65.28
2023-02-22T01:28:13.472Z,66.39
2023-02-22T01:30:40.327Z,67.14
2023-02-22T01:33:09.385Z,67.90
2023-02-22T01:35:38.070Z,67.92
2023-02-22T01:38:04.869Z,69.28
2023-02-22T01:40:33.747Z,68.68
2023-02-22T01:43:04.154Z,68.79
2023-02-22T01:45:49.005Z,69.46
2023-02-22T01:48:22.393Z,70.72
2023-02-22T01:50:52.209Z,71.61
2023-02-22T01:53:20.572Z,71.33
2023-02-22T01:55:48.113Z,70.57
2023-02-22T01:58:18.593Z,72.04
2023-02-22T02:00:45.341Z,71.17
2023-02-22T02:03:15.413Z,71.50
2023-02-22T02:05:44.308Z,70.83
2023-02-22T02:08:21.592Z,71.04
2023-02-22T02:10:48.925Z,70.98
2023-02-22T02:13:16.327Z,72.21
2023-02-22T02:15:43.285Z,70.36
2023-02-22T02:18:12.464Z,69.87
2023-02-22T02:20:50.036Z,70.80
2023-02-22T02:23:38.786Z,71.22
2023-02-22T02:26:27.509Z,71.49
2023-02-22T02:29:24.369Z,70.87
2023-02-22T02:32:15.636Z,72.71
2023-02-22T02:34:49.554Z,73.15
2023-02-22T02:37:27.930Z,70.49
2023-02-22T02:40:05.085Z,70.69
2023-02-22T02:42:38.092Z,68.52
2023-02-22T02:45:09.603Z,67.26
2023-02-22T02:47:42.279Z,66.84
2023-02-22T02:50:11.779Z,66.68
2023-02-22T02:52:41.035Z,66.58
2023-02-22T02:55:09.664Z,68.46
2023-02-22T02:57:36.459Z,67.24
2023-02-22T03:00:03.536Z,67.04
2023-02-22T03:02:44.632Z,69.57
2023-02-22T03:05:39.809Z,68.24
2023-02-22T03:08:15.888Z,68.01
2023-02-22T03:10:49.013Z,68.59
2023-02-22T03:13:25.354Z,68.66
2023-02-22T03:15:58.015Z,68.38
2023-02-22T03:18:33.269Z,68.63
2023-02-22T03:21:06.766Z,71.10
2023-02-22T03:23:41.597Z,70.30
2023-02-22T03:26:13.249Z,70.91
2023-02-22T03:28:43.010Z,70.26
2023-02-22T03:31:14.269Z,71.32
2023-02-22T03:33:46.292Z,70.41
2023-02-22T03:36:19.741Z,71.14
2023-02-22T03:38:49.306Z,69.76
2023-02-22T03:41:19.577Z,70.96
2023-02-22T03:43:50.482Z,71.89
2023-02-22T03:46:18.008Z,71.94
2023-02-22T03:48:53.880Z,72.41
2023-02-22T03:51:21.677Z,71.32
2023-02-22T03:53:48.683Z,71.51
2023-02-22T03:56:21.826Z,72.45
2023-02-22T03:58:49.981Z,72.20
2023-02-22T04:01:17.282Z,70.49
2023-02-22T04:03:44.257Z,74.25
2023-02-22T04:06:12.438Z,73.72
2023-02-22T04:08:39.239Z,71.30
2023-02-22T04:11:06.095Z,69.91
2023-02-22T04:13:32.982Z,71.12
2023-02-22T04:15:59.799Z,70.61
2023-02-22T04:18:26.645Z,70.75
2023-02-22T04:20:53.449Z,72.29
2023-02-22T04:23:21.718Z,74.36
2023-02-22T04:25:48.531Z,73.87
2023-02-22T04:28:15.281Z,76.86
2023-02-22T04:30:42.070Z,75.12
2023-02-22T04:33:08.875Z,75.09
2023-02-22T04:35:35.753Z,74.78
2023-02-22T04:38:02.497Z,73.97
2023-02-22T04:40:30.896Z,72.07
2023-02-22T04:42:57.778Z,72.49
2023-02-22T04:45:24.746Z,72.05
2023-02-22T04:47:51.549Z,71.29
2023-02-22T04:50:18.990Z,71.37
2023-02-22T04:52:45.755Z,73.31
2023-02-22T04:55:12.832Z,72.64
2023-02-22T04:57:40.930Z,72.40
2023-02-22T05:00:09.133Z,73.04
2023-02-22T05:02:35.925Z,73.38
2023-02-22T05:05:02.811Z,73.49
2023-02-22T05:07:29.589Z,72.91
2023-02-22T05:09:56.480Z,70.32
2023-02-22T05:12:23.249Z,71.68
2023-02-22T05:14:51.385Z,70.40
2023-02-22T05:17:18.304Z,70.31
2023-02-22T05:19:45.154Z,70.05
2023-02-22T05:22:11.990Z,69.86
2023-02-22T05:24:38.838Z,71.02
2023-02-22T05:27:05.676Z,71.94
2023-02-22T05:29:32.411Z,71.76
2023-02-22T05:32:00.672Z,72.75
2023-02-22T05:34:27.455Z,72.75
2023-02-22T05:36:54.250Z,74.48
2023-02-22T05:39:20.985Z,74.51
2023-02-22T05:41:47.851Z,75.09
2023-02-22T05:44:15.145Z,72.91
2023-02-22T05:46:42.109Z,72.66
2023-02-22T05:49:11.468Z,72.34
2023-02-22T05:51:39.325Z,71.80
2023-02-22T05:54:06.180Z,72.03
2023-02-22T05:56:33.427Z,71.24
2023-02-22T05:59:00.568Z,71.29
2023-02-22T06:01:28.050Z,72.55
2023-02-22T06:03:54.944Z,75.27
2023-02-22T06:06:23.085Z,76.97
2023-02-22T06:08:50.537Z,77.22
2023-02-22T06:11:17.671Z,75.87
2023-02-22T06:13:49.576Z,75.20
2023-02-22T06:16:16.562Z,74.85
2023-02-22T06:18:43.375Z,75.84
2023-02-22T06:21:10.236Z,74.66
2023-02-22T06:23:38.335Z,73.12
2023-02-22T06:26:05.748Z,72.37
2023-02-22T06:28:32.647Z,73.66
2023-02-22T06:31:00.151Z,72.71
2023-02-22T06:33:26.923Z,73.84
2023-02-22T06:35:54.209Z,73.29
2023-02-22T06:38:21.642Z,76.13
2023-02-22T06:40:50.020Z,76.37
2023-02-22T06:43:17.854Z,75.96
2023-02-22T06:45:45.193Z,74.89
2023-02-22T06:48:12.144Z,75.05
2023-02-22T06:50:39.194Z,75.55
2023-02-22T06:53:06.052Z,75.96
2023-02-22T06:55:34.542Z,74.89
2023-02-22T06:58:05.262Z,75.16
2023-02-22T07:00:32.974Z,75.23
2023-02-22T07:03:01.336Z,75.41
2023-02-22T07:05:29.209Z,77.57
2023-02-22T07:08:03.352Z,75.61
2023-02-22T07:10:32.566Z,75.20
2023-02-22T07:13:00.662Z,76.91
2023-02-22T07:15:31.544Z,75.82
2023-02-22T07:17:59.227Z,76.70
2023-02-22T07:20:28.044Z,77.36
2023-02-22T07:22:55.925Z,76.73
2023-02-22T07:25:24.371Z,78.08
2023-02-22T07:27:51.983Z,77.15
2023-02-22T07:30:21.530Z,78.36
2023-02-22T07:32:50.302Z,77.36
2023-02-22T07:35:19.414Z,74.20
2023-02-22T07:37:46.580Z,73.17
2023-02-22T07:40:14.957Z,72.25
2023-02-22T07:42:57.880Z,73.73
2023-02-22T07:45:27.214Z,74.39
2023-02-22T07:47:56.957Z,72.24
2023-02-22T07:50:29.079Z,72.44
2023-02-22T07:52:57.941Z,68.02
2023-02-22T07:55:26.339Z,63.45
2023-02-22T07:57:55.815Z,61.55
2023-02-22T08:00:24.896Z,60.14
2023-02-22T08:02:52.516Z,58.53
2023-02-22T08:05:25.847Z,58.21
2023-02-22T08:07:52.965Z,57.83
2023-02-22T08:10:21.971Z,57.70
2023-02-22T08:12:49.811Z,56.21
2023-02-22T08:15:19.073Z,57.08
2023-02-22T08:17:45.883Z,56.32
2023-02-22T08:20:13.168Z,55.29
2023-02-22T08:22:43.391Z,53.53
2023-02-22T08:25:11.171Z,52.27
2023-02-22T08:27:38.151Z,53.13
2023-02-22T08:30:06.354Z,52.36
2023-02-22T08:32:34.476Z,51.37
2023-02-22T08:35:02.539Z,51.51
2023-02-22T08:37:29.609Z,51.62
2023-02-22T08:39:58.005Z,50.78
2023-02-22T08:42:25.606Z,50.84
2023-02-22T08:44:52.365Z,51.08
2023-02-22T08:47:19.484Z,51.01
2023-02-22T08:49:46.313Z,50.58
2023-02-22T08:52:13.164Z,49.89
2023-02-22T08:54:40.766Z,50.28
2023-02-22T08:57:09.436Z,49.88
2023-02-22T08:59:36.505Z,49.55
2023-02-22T09:02:03.785Z,49.01
2023-02-22T09:04:32.543Z,49.00
2023-02-22T09:06:59.478Z,49.09
2023-02-22T09:09:26.304Z,49.83
2023-02-22T09:11:53.388Z,49.85
2023-02-22T09:14:21.939Z,49.80
2023-02-22T09:16:48.887Z,49.57
2023-02-22T09:19:16.122Z,48.37
2023-02-22T09:21:42.893Z,47.84
2023-02-22T09:24:09.727Z,47.71
2023-02-22T09:26:38.171Z,46.93
2023-02-22T09:29:07.267Z,46.45
2023-02-22T09:31:37.250Z,46.40
2023-02-22T09:34:07.653Z,45.00
2023-02-22T09:36:34.430Z,45.12
2023-02-22T09:39:01.269Z,46.15
2023-02-22T09:41:36.421Z,46.05
2023-02-22T09:44:16.048Z,45.95
2023-02-22T09:46:47.959Z,46.44
2023-02-22T09:49:21.294Z,46.33
2023-02-22T09:51:52.673Z,46.31
2023-02-22T09:54:23.628Z,46.19
2023-02-22T09:56:55.578Z,46.54
2023-02-22T09:59:25.432Z,46.81
2023-02-22T10:02:02.744Z,47.37
2023-02-22T10:04:41.013Z,46.42
2023-02-22T10:07:16.856Z,47.23
2023-02-22T10:09:44.988Z,46.84
2023-02-22T10:12:23.021Z,46.76
2023-02-22T10:15:22.170Z,45.26
2023-02-22T10:18:01.147Z,45.92
2023-02-22T10:20:42.790Z,45.78
2023-02-22T10:23:20.482Z,44.97
2023-02-22T10:25:52.150Z,45.31
2023-02-22T10:28:23.797Z,45.57
2023-02-22T10:30:53.630Z,45.28
2023-02-22T10:33:23.992Z,44.66
2023-02-22T10:35:52.576Z,43.91
2023-02-22T10:38:21.042Z,44.89
2023-02-22T10:40:53.063Z,43.40
2023-02-22T10:43:22.461Z,43.76
2023-02-22T10:45:53.424Z,42.92
2023-02-22T10:48:24.989Z,42.93
2023-02-22T10:50:54.838Z,41.53
2023-02-22T10:53:21.988Z,42.55
2023-02-22T10:56:11.917Z,41.72
2023-02-22T10:58:49.193Z,40.35
2023-02-22T11:01:26.697Z,40.38
2023-02-22T11:04:13.728Z,40.55
2023-02-22T11:06:42.668Z,40.32
2023-02-22T11:09:13.280Z,40.01
2023-02-22T11:11:42.375Z,40.03
2023-02-22T11:14:10.815Z,39.21
2023-02-22T11:16:40.807Z,39.22
2023-02-22T11:19:18.301Z,38.56
2023-02-22T11:21:45.323Z,38.73
2023-02-22T11:26:45.912Z,38.83
2023-02-22T11:29:20.101Z,39.83
2023-02-22T11:31:47.453Z,39.87
2023-02-22T11:34:39.172Z,39.30
2023-02-22T11:37:28.374Z,39.14
2023-02-22T11:40:07.256Z,39.65
2023-02-22T11:42:34.308Z,39.13
2023-02-22T11:45:13.682Z,39.43
2023-02-22T11:47:50.053Z,40.70
2023-02-22T11:50:23.555Z,41.52
2023-02-22T11:53:05.132Z,42.15
2023-02-22T11:55:43.134Z,42.46
2023-02-22T11:58:28.450Z,43.52
2023-02-22T12:01:02.799Z,43.34
2023-02-22T12:03:50.150Z,43.40
2023-02-22T12:06:30.813Z,43.00
2023-02-22T12:09:07.811Z,44.27
2023-02-22T12:11:44.120Z,45.31
2023-02-22T12:14:21.190Z,44.79
2023-02-22T12:17:17.964Z,44.45
2023-02-22T12:19:48.803Z,44.57
2023-02-22T12:22:20.809Z,44.21
2023-02-22T12:25:00.737Z,45.49
2023-02-22T12:27:39.276Z,44.05
2023-02-22T12:30:13.245Z,44.28
2023-02-22T12:32:43.952Z,43.86
2023-02-22T12:35:16.925Z,43.30
2023-02-22T12:37:54.710Z,42.56
2023-02-22T12:40:26.992Z,42.60
2023-02-22T12:42:59.850Z,44.09
2023-02-22T12:45:34.469Z,43.24
2023-02-22T12:48:16.950Z,43.85
2023-02-22T12:50:47.085Z,43.79
2023-02-22T12:53:21.028Z,44.67
2023-02-22T12:55:51.760Z,43.55
2023-02-22T12:58:23.475Z,43.51
2023-02-22T13:00:56.870Z,43.53
2023-02-22T13:03:35.576Z,43.21
2023-02-22T13:06:26.104Z,43.43
2023-02-22T13:09:11.016Z,43.68
2023-02-22T13:11:45.717Z,43.29
2023-02-22T13:14:32.191Z,43.98
2023-02-22T13:17:05.905Z,43.24
2023-02-22T13:19:43.295Z,44.00
2023-02-22T13:22:15.816Z,43.56
2023-02-22T13:24:55.290Z,43.28
2023-02-22T13:27:26.604Z,43.91
2023-02-22T13:29:58.165Z,43.54
2023-02-22T13:32:41.514Z,43.82
2023-02-22T13:35:22.634Z,44.87
2023-02-22T13:38:22.362Z,43.98
2023-02-22T13:41:08.661Z,43.98
2023-02-22T13:43:55.129Z,44.49
2023-02-22T13:46:56.205Z,44.68
2023-02-22T13:49:53.243Z,43.96
2023-02-22T13:52:23.857Z,44.68
2023-02-22T13:54:53.958Z,44.34
2023-02-22T13:57:24.559Z,45.24
2023-02-22T14:00:19.104Z,44.08
2023-02-22T14:03:04.323Z,41.43
2023-02-22T14:05:53.516Z,45.22
2023-02-22T14:08:41.942Z,46.35
2023-02-22T14:11:50.627Z,46.63
2023-02-22T14:14:18.870Z,46.97
2023-02-22T14:17:20.987Z,47.30
2023-02-22T14:20:02.081Z,44.30
2023-02-22T14:22:30.033Z,40.65
2023-02-22T14:24:58.263Z,38.35
2023-02-22T14:27:25.388Z,36.56
2023-02-22T14:29:56.043Z,36.50
2023-02-22T14:32:31.174Z,36.01
2023-02-22T14:35:00.670Z,36.12
2023-02-22T14:37:31.013Z,38.69
2023-02-22T14:40:01.932Z,39.84
2023-02-22T14:42:32.219Z,38.67
2023-02-22T14:45:10.740Z,39.02
2023-02-22T14:47:41.869Z,38.74
2023-02-22T14:50:15.046Z,38.17
2023-02-22T14:52:44.850Z,35.55
2023-02-22T14:55:21.059Z,35.78
2023-02-22T14:57:58.895Z,38.00
2023-02-22T15:00:39.253Z,38.13
2023-02-22T15:03:06.022Z,38.70
2023-02-22T15:05:40.251Z,40.82
2023-02-22T15:08:07.902Z,37.60
2023-02-22T15:10:41.373Z,37.04
2023-02-22T15:13:17.418Z,37.83
2023-02-22T15:15:49.445Z,38.95
2023-02-22T15:18:24.826Z,36.59
2023-02-22T15:20:55.911Z,37.76
2023-02-22T15:23:26.084Z,38.48
2023-02-22T15:25:53.689Z,37.74
2023-02-22T15:28:23.590Z,37.55
2023-02-22T15:30:52.119Z,38.69
2023-02-22T15:33:20.883Z,38.46
2023-02-22T15:35:54.213Z,40.63
2023-02-22T15:38:28.507Z,37.36
2023-02-22T15:41:00.443Z,40.10
2023-02-22T15:43:27.249Z,40.55
2023-02-22T15:45:56.159Z,38.78
2023-02-22T15:48:23.398Z,39.26
2023-02-22T15:51:05.667Z,39.80
2023-02-22T15:53:40.231Z,39.86
2023-02-22T15:56:12.095Z,38.66
2023-02-22T15:58:39.486Z,37.84
2023-02-22T16:01:09.868Z,39.47
2023-02-22T16:03:40.125Z,41.92
2023-02-22T16:06:10.972Z,42.95
2023-02-22T16:08:54.399Z,44.23
2023-02-22T16:11:24.863Z,43.35
2023-02-22T16:13:53.601Z,46.43
2023-02-22T16:16:29.417Z,48.51
2023-02-22T16:19:22.287Z,46.99
2023-02-22T16:21:53.984Z,49.77
2023-02-22T16:24:27.750Z,52.34
2023-02-22T16:27:18.518Z,52.93
2023-02-22T16:30:00.368Z,53.99
2023-02-22T16:32:28.504Z,53.47
2023-02-22T16:34:55.386Z,54.00
2023-02-22T16:37:23.111Z,56.21
2023-02-22T16:39:50.668Z,55.54
2023-02-22T16:42:18.281Z,56.36
2023-02-22T16:44:45.054Z,56.17
2023-02-22T16:47:12.413Z,57.86
2023-02-22T16:49:40.521Z,58.15
2023-02-22T16:52:07.997Z,60.70
2023-02-22T16:54:41.338Z,59.27
2023-02-22T16:57:15.337Z,59.33
2023-02-22T16:59:42.133Z,60.10
2023-02-22T17:02:13.017Z,60.92
2023-02-22T17:04:41.905Z,61.19
2023-02-22T17:07:08.659Z,62.25
2023-02-22T17:09:35.439Z,61.22
2023-02-22T17:12:02.495Z,61.40
2023-02-22T17:14:33.633Z,59.82
2023-02-22T17:17:00.557Z,60.09
2023-02-22T17:19:27.345Z,61.17
2023-02-22T17:21:55.538Z,56.14
2023-02-22T17:24:23.837Z,61.01
2023-02-22T17:26:51.509Z,60.30
2023-02-22T17:29:18.312Z,60.60
2023-02-22T17:31:45.406Z,60.15
2023-02-22T17:34:12.301Z,57.70
2023-02-22T17:36:39.035Z,60.53
2023-02-22T17:39:07.209Z,59.99
2023-02-22T17:41:33.971Z,59.96
2023-02-22T17:44:00.693Z,59.80
2023-02-22T17:46:27.533Z,59.90
2023-02-22T17:48:54.312Z,60.31
2023-02-22T17:51:22.389Z,59.85
2023-02-22T17:53:49.134Z,59.49
2023-02-22T17:56:19.264Z,58.82
2023-02-22T17:58:47.204Z,60.94
2023-02-22T18:01:22.442Z,62.11
2023-02-22T18:03:49.444Z,64.13
2023-02-22T18:06:17.597Z,62.91
2023-02-22T18:08:44.530Z,62.91
2023-02-22T18:11:11.284Z,63.41
2023-02-22T18:13:39.465Z,63.79
2023-02-22T18:16:06.839Z,66.73
2023-02-22T18:18:33.742Z,63.46
2023-02-22T18:21:00.610Z,63.45
2023-02-22T18:23:29.375Z,63.98
2023-02-22T18:26:09.533Z,65.99
2023-02-22T18:28:36.926Z,66.17
2023-02-22T18:31:08.868Z,68.09
2023-02-22T18:33:35.696Z,68.01
2023-02-22T18:36:02.467Z,65.77
2023-02-22T18:38:29.252Z,65.01
2023-02-22T18:41:00.352Z,68.22
2023-02-22T18:43:27.575Z,67.16
2023-02-22T18:45:54.414Z,67.49
2023-02-22T18:48:22.520Z,66.34
2023-02-22T18:50:51.401Z,66.43
2023-02-22T18:53:18.179Z,67.05
2023-02-22T18:55:45.015Z,68.76
2023-02-22T18:58:13.872Z,65.23
2023-02-22T19:00:40.757Z,68.41
2023-02-22T19:03:07.565Z,70.19
2023-02-22T19:05:36.378Z,70.46
2023-02-22T19:08:06.351Z,69.19
2023-02-22T19:10:36.673Z,69.57
2023-02-22T19:13:06.590Z,69.31
2023-02-22T19:15:33.753Z,69.26
2023-02-22T19:18:00.616Z,68.95
2023-02-22T19:20:27.425Z,70.20
2023-02-22T19:22:55.606Z,70.43
2023-02-22T19:25:22.419Z,72.16
2023-02-22T19:27:49.166Z,71.24
2023-02-22T19:30:16.055Z,70.92
2023-02-22T19:32:42.881Z,70.61
2023-02-22T19:35:11.591Z,70.94
2023-02-22T19:37:38.917Z,71.39
2023-02-22T19:40:08.120Z,71.01
2023-02-22T19:42:35.101Z,71.43
2023-02-22T19:45:01.850Z,72.27
2023-02-22T19:47:28.591Z,71.26
2023-02-22T19:49:56.594Z,73.84
2023-02-22T19:52:25.139Z,73.85
2023-02-22T19:54:51.889Z,74.32
2023-02-22T19:57:20.014Z,71.77
2023-02-22T19:59:46.990Z,73.41
2023-02-22T20:02:13.772Z,73.29
2023-02-22T20:04:40.646Z,72.93
2023-02-22T20:07:07.510Z,72.74
2023-02-22T20:09:34.277Z,74.12
2023-02-22T20:12:01.025Z,73.94
2023-02-22T20:14:29.190Z,73.62
2023-02-22T20:16:57.400Z,74.91
2023-02-22T20:19:25.076Z,73.56
2023-02-22T20:21:52.455Z,72.79
2023-02-22T20:24:19.432Z,73.60
2023-02-22T20:26:46.942Z,74.04
2023-02-22T20:29:14.481Z,73.60
2023-02-22T20:31:43.430Z,73.29
2023-02-22T20:34:11.009Z,74.26
2023-02-22T20:36:39.463Z,74.21
2023-02-22T20:39:08.155Z,73.51
2023-02-22T20:41:35.901Z,72.78
2023-02-22T20:44:03.593Z,73.33
2023-02-22T20:46:31.616Z,73.75
2023-02-22T20:49:01.546Z,75.05
2023-02-22T20:51:29.285Z,74.81
2023-02-22T20:53:57.638Z,76.03
2023-02-22T20:56:24.488Z,76.46
2023-02-22T20:58:51.957Z,77.31
2023-02-22T21:01:20.671Z,77.57
2023-02-22T21:03:47.716Z,78.02
2023-02-22T21:06:17.526Z,77.48
2023-02-22T21:08:49.081Z,78.75
2023-02-22T21:11:17.925Z,77.37
2023-02-22T21:13:44.822Z,77.19
2023-02-22T21:16:18.208Z,77.67
2023-02-22T21:18:44.990Z,76.00
2023-02-22T21:21:11.767Z,74.35
2023-02-22T21:23:40.806Z,76.49
2023-02-22T21:26:13.293Z,76.74
2023-02-22T21:28:50.831Z,73.97
2023-02-22T21:31:20.068Z,75.28
2023-02-22T21:33:49.219Z,76.46
2023-02-22T21:36:16.098Z,78.00
2023-02-22T21:38:45.839Z,79.02
2023-02-22T21:41:12.991Z,83.33
2023-02-22T21:43:39.804Z,77.97
2023-02-22T21:46:08.077Z,78.35
2023-02-22T21:48:34.969Z,77.83
2023-02-22T21:51:08.571Z,78.50
2023-02-22T21:53:35.450Z,78.85
2023-02-22T21:56:05.234Z,78.39
2023-02-22T21:58:31.968Z,78.80
2023-02-22T22:01:04.568Z,78.54
2023-02-22T22:03:31.701Z,78.52
2023-02-22T22:05:58.557Z,79.83
2023-02-22T22:08:25.412Z,81.60
2023-02-22T22:10:52.571Z,82.02
2023-02-22T22:13:20.724Z,80.79
2023-02-22T22:15:47.485Z,79.88
2023-02-22T22:18:14.569Z,81.00
2023-02-22T22:20:41.367Z,79.92
2023-02-22T22:23:08.158Z,79.30
2023-02-22T22:25:34.980Z,80.55
2023-02-22T22:28:01.739Z,80.30
2023-02-22T22:30:29.874Z,80.61
2023-02-22T22:32:56.603Z,81.43
2023-02-22T22:35:23.322Z,82.62
2023-02-22T22:37:50.141Z,81.91
2023-02-22T22:40:17.972Z,81.89
2023-02-22T22:42:45.891Z,79.55
2023-02-22T22:45:13.172Z,79.90
2023-02-22T22:47:41.372Z,79.60
2023-02-22T22:50:09.490Z,80.60
2023-02-22T22:52:36.285Z,81.51
2023-02-22T22:55:03.175Z,81.41
2023-02-22T22:57:29.925Z,81.52
2023-02-22T22:59:56.733Z,81.61
2023-02-22T23:02:23.480Z,82.19
2023-02-22T23:04:51.867Z,82.01
2023-02-22T23:07:18.614Z,82.10
2023-02-22T23:09:45.434Z,82.64
2023-02-22T23:12:12.170Z,82.35
2023-02-22T23:14:40.718Z,82.79
2023-02-22T23:17:07.466Z,82.17
2023-02-22T23:19:36.554Z,81.68
2023-02-22T23:22:05.623Z,81.51
2023-02-22T23:24:34.312Z,81.65
2023-02-22T23:27:01.132Z,82.37
2023-02-22T23:29:28.643Z,82.67
2023-02-22T23:31:55.453Z,82.68
2023-02-22T23:34:23.233Z,83.10
2023-02-22T23:36:50.366Z,82.92
2023-02-22T23:39:19.832Z,82.63
2023-02-22T23:41:49.962Z,83.07
2023-02-22T23:44:16.710Z,83.07
2023-02-22T23:46:43.934Z,82.34
2023-02-22T23:49:11.271Z,83.15
2023-02-22T23:51:38.928Z,84.55
2023-02-22T23:54:06.907Z,85.16
2023-02-22T23:56:35.802Z,84.94
2023-02-22T23:59:04.074Z,84.63
